createdAt,value
2023-01-01T00:02:37.696Z,21.34
2023-01-01T00:05:44.498Z,20.62
2023-01-01T00:09:15.081Z,19.79
2023-01-01T00:12:21.346Z,20.53
2023-01-01T00:15:29.401Z,20.55
2023-01-01T00:18:35.706Z,20.54
2023-01-01T00:21:43.049Z,20.59
2023-01-01T00:24:51.798Z,23.76
2023-01-01T00:27:58.779Z,26.60
2023-01-01T00:31:10.973Z,24.50
2023-01-01T00:34:18.151Z,23.25
2023-01-01T00:37:24.429Z,21.79
2023-01-01T00:40:34.188Z,20.86
2023-01-01T00:43:40.458Z,21.40
2023-01-01T00:46:47.500Z,23.08
2023-01-01T00:49:53.828Z,25.23
2023-01-01T00:53:00.964Z,23.56
2023-01-01T00:56:10.525Z,22.25
2023-01-01T00:59:17.553Z,22.83
2023-01-01T01:02:23.805Z,23.08
2023-01-01T01:05:30.833Z,23.59
2023-01-01T01:08:40.644Z,24.57
2023-01-01T01:11:50.368Z,25.20
2023-01-01T01:14:56.520Z,24.04
2023-01-01T01:18:03.479Z,24.58
2023-01-01T01:21:10.070Z,24.56
2023-01-01T01:24:17.062Z,24.02
2023-01-01T01:27:25.780Z,23.53
2023-01-01T01:30:33.481Z,22.78
2023-01-01T01:33:39.941Z,22.82
2023-01-01T01:36:46.839Z,23.16
2023-01-01T01:39:54.128Z,23.27
2023-01-01T01:43:04.080Z,22.07
2023-01-01T01:46:17.537Z,22.50
2023-01-01T01:49:33.667Z,22.57
2023-01-01T01:52:50.843Z,23.32
2023-01-01T01:56:04.544Z,22.63
2023-01-01T01:59:13.516Z,22.38
2023-01-01T02:02:35.387Z,23.14
2023-01-01T02:05:45.407Z,23.90
2023-01-01T02:08:54.758Z,24.46
2023-01-01T02:12:02.966Z,25.72
2023-01-01T02:15:13.992Z,25.18
2023-01-01T02:18:28.256Z,23.46
2023-01-01T02:21:53.146Z,21.12
2023-01-01T02:25:23.866Z,20.66
2023-01-01T02:28:59.021Z,20.39
2023-01-01T02:32:12.492Z,19.09
2023-01-01T02:35:46.132Z,19.53
2023-01-01T02:38:59.923Z,18.95
2023-01-01T02:42:10.981Z,17.91
2023-01-01T02:45:19.724Z,18.47
2023-01-01T02:48:44.539Z,18.62
2023-01-01T02:52:08.325Z,16.72
2023-01-01T02:55:37.385Z,15.98
2023-01-01T02:59:19.858Z,13.88
2023-01-01T03:02:50.713Z,12.65
2023-01-01T03:06:27.286Z,12.31
2023-01-01T03:09:57.233Z,12.96
2023-01-01T03:13:16.673Z,15.58
2023-01-01T03:16:38.443Z,14.68
2023-01-01T03:19:49.410Z,12.70
2023-01-01T03:23:05.258Z,11.89
2023-01-01T03:26:18.255Z,11.27
2023-01-01T03:29:27.485Z,11.99
2023-01-01T03:32:56.823Z,11.66
2023-01-01T03:36:16.041Z,11.80
2023-01-01T03:39:29.909Z,12.14
2023-01-01T03:42:44.652Z,12.96
2023-01-01T03:45:58.036Z,12.19
2023-01-01T03:49:09.822Z,12.66
2023-01-01T03:52:46.061Z,12.21
2023-01-01T03:56:10.422Z,11.29
2023-01-01T03:59:26.915Z,11.15
2023-01-01T04:02:43.052Z,11.27
2023-01-01T04:05:49.809Z,10.19
2023-01-01T04:09:06.949Z,10.06
2023-01-01T04:12:14.520Z,10.49
2023-01-01T04:15:25.167Z,10.91
2023-01-01T04:18:32.040Z,11.57
2023-01-01T04:21:38.933Z,11.86
2023-01-01T04:24:47.581Z,13.09
2023-01-01T04:27:54.507Z,14.87
2023-01-01T04:31:04.221Z,14.59
2023-01-01T04:34:11.240Z,15.04
2023-01-01T04:37:17.424Z,15.43
2023-01-01T04:40:26.927Z,17.96
2023-01-01T04:43:34.986Z,21.10
2023-01-01T04:46:42.833Z,16.77
2023-01-01T04:49:48.903Z,13.35
2023-01-01T04:52:56.694Z,12.77
2023-01-01T04:56:12.057Z,13.17
2023-01-01T04:59:19.004Z,13.40
2023-01-01T05:02:25.107Z,13.13
2023-01-01T05:05:32.079Z,13.48
2023-01-01T05:08:42.796Z,13.28
2023-01-01T05:11:52.314Z,13.58
2023-01-01T05:14:58.338Z,14.62
2023-01-01T05:18:05.297Z,16.37
2023-01-01T05:21:15.150Z,17.62
2023-01-01T05:24:22.078Z,18.59
2023-01-01T05:27:30.830Z,18.54
2023-01-01T05:30:37.980Z,18.07
2023-01-01T05:33:45.249Z,17.99
2023-01-01T05:36:52.210Z,17.05
2023-01-01T05:39:58.500Z,14.96
2023-01-01T05:43:07.985Z,13.65
2023-01-01T05:46:17.954Z,11.90
2023-01-01T05:49:25.656Z,11.04
2023-01-01T05:52:31.752Z,10.97
2023-01-01T05:55:38.694Z,10.60
2023-01-01T05:58:48.872Z,11.04
2023-01-01T06:01:55.844Z,11.82
2023-01-01T06:05:01.925Z,12.88
2023-01-01T06:08:09.845Z,13.79
2023-01-01T06:11:15.972Z,11.92
2023-01-01T06:14:25.513Z,10.17
2023-01-01T06:17:31.558Z,9.61
2023-01-01T06:20:38.489Z,9.30
2023-01-01T06:23:45.481Z,8.68
2023-01-01T06:26:52.513Z,9.43
2023-01-01T06:30:02.014Z,9.93
2023-01-01T06:33:09.394Z,10.93
2023-01-01T06:36:19.739Z,10.74
2023-01-01T06:39:26.591Z,10.76
2023-01-01T06:42:34.171Z,11.22
2023-01-01T06:45:43.756Z,10.36
2023-01-01T06:48:52.518Z,10.47
2023-01-01T06:51:59.710Z,10.30
2023-01-01T06:55:05.877Z,10.03
2023-01-01T06:58:12.972Z,10.14
2023-01-01T07:01:25.714Z,9.80
2023-01-01T07:04:32.816Z,10.35
2023-01-01T07:07:38.904Z,10.59
2023-01-01T07:10:45.869Z,10.98
2023-01-01T07:13:52.028Z,11.65
2023-01-01T07:17:01.583Z,13.02
2023-01-01T07:20:09.105Z,13.53
2023-01-01T07:23:16.065Z,13.86
2023-01-01T07:26:22.126Z,12.76
2023-01-01T07:29:29.238Z,11.33
2023-01-01T07:32:38.044Z,10.96
2023-01-01T07:35:45.941Z,10.18
2023-01-01T07:38:52.038Z,9.41
2023-01-01T07:41:59.027Z,9.71
2023-01-01T07:45:05.212Z,8.96
2023-01-01T07:48:19.096Z,9.02
2023-01-01T07:51:26.404Z,9.71
2023-01-01T07:54:33.314Z,9.01
2023-01-01T07:57:39.411Z,11.91
2023-01-01T08:00:50.654Z,15.59
2023-01-01T08:03:59.436Z,14.45
2023-01-01T08:07:06.368Z,14.39
2023-01-01T08:10:13.857Z,12.72
2023-01-01T08:13:20.821Z,12.10
2023-01-01T08:16:27.128Z,12.10
2023-01-01T08:19:36.765Z,12.81
2023-01-01T08:22:42.810Z,15.37
2023-01-01T08:25:50.511Z,14.41
2023-01-01T08:28:57.553Z,11.91
2023-01-01T08:32:04.530Z,11.41
2023-01-01T08:35:14.510Z,11.78
2023-01-01T08:38:21.520Z,12.12
2023-01-01T08:41:27.632Z,12.06
2023-01-01T08:44:34.524Z,13.01
2023-01-01T08:47:40.744Z,12.84
2023-01-01T08:50:56.623Z,14.07
2023-01-01T08:54:02.971Z,12.72
2023-01-01T08:57:10.219Z,11.61
2023-01-01T09:00:18.399Z,12.03
2023-01-01T09:03:26.581Z,11.01
2023-01-01T09:06:35.443Z,11.24
2023-01-01T09:09:42.444Z,12.59
2023-01-01T09:12:48.715Z,11.87
2023-01-01T09:15:56.311Z,11.79
2023-01-01T09:19:02.666Z,12.78
2023-01-01T09:22:16.077Z,13.25
2023-01-01T09:25:22.589Z,19.11
2023-01-01T09:28:29.848Z,17.89
2023-01-01T09:31:36.126Z,14.73
2023-01-01T09:34:47.323Z,15.38
2023-01-01T09:38:00.140Z,12.60
2023-01-01T09:41:25.018Z,13.54
2023-01-01T09:45:05.609Z,15.83
2023-01-01T09:48:20.680Z,15.60
2023-01-01T09:51:45.257Z,16.74
2023-01-01T09:55:07.388Z,20.35
2023-01-01T09:58:16.419Z,21.47
2023-01-01T10:01:48.072Z,18.13
2023-01-01T10:05:13.345Z,16.41
2023-01-01T10:08:42.764Z,14.39
2023-01-01T10:12:08.984Z,12.26
2023-01-01T10:15:25.270Z,14.01
2023-01-01T10:18:38.631Z,14.52
2023-01-01T10:21:49.749Z,11.21
2023-01-01T10:25:04.057Z,13.44
2023-01-01T10:28:26.151Z,14.36
2023-01-01T10:31:37.854Z,15.68
2023-01-01T10:34:45.625Z,14.71
2023-01-01T10:37:53.098Z,14.51
2023-01-01T10:41:18.981Z,13.08
2023-01-01T10:44:34.724Z,15.36
2023-01-01T10:47:41.854Z,15.31
2023-01-01T10:50:53.815Z,14.30
2023-01-01T10:54:01.153Z,13.73
2023-01-01T10:57:21.665Z,12.19
2023-01-01T11:00:32.288Z,11.12
2023-01-01T11:03:39.118Z,11.89
2023-01-01T11:06:50.377Z,13.78
2023-01-01T11:10:05.366Z,12.97
2023-01-01T11:13:25.800Z,11.81
2023-01-01T11:16:42.024Z,10.62
2023-01-01T11:19:59.760Z,10.35
2023-01-01T11:23:31.713Z,10.19
2023-01-01T11:26:40.868Z,10.56
2023-01-01T11:29:48.513Z,13.89
2023-01-01T11:33:04.767Z,11.61
2023-01-01T11:36:12.406Z,10.66
2023-01-01T11:39:29.016Z,10.50
2023-01-01T11:42:40.652Z,10.65
2023-01-01T11:45:48.383Z,13.66
2023-01-01T11:48:58.343Z,12.41
2023-01-01T11:52:38.254Z,10.60
2023-01-01T11:55:51.098Z,10.85
2023-01-01T11:59:06.035Z,8.89
2023-01-01T12:02:21.736Z,9.75
2023-01-01T12:05:51.984Z,9.48
2023-01-01T12:09:18.307Z,7.64
2023-01-01T12:12:37.605Z,8.55
2023-01-01T12:15:56.156Z,8.75
2023-01-01T12:19:16.454Z,9.83
2023-01-01T12:22:25.263Z,10.43
2023-01-01T12:25:43.943Z,10.00
2023-01-01T12:29:36.903Z,9.81
2023-01-01T12:33:28.262Z,9.12
2023-01-01T12:36:51.926Z,9.69
2023-01-01T12:40:38.013Z,10.22
2023-01-01T12:44:02.258Z,9.50
2023-01-01T12:47:37.245Z,9.92
2023-01-01T12:51:05.192Z,11.28
2023-01-01T12:54:51.184Z,11.57
2023-01-01T12:58:14.470Z,11.45
2023-01-01T13:01:32.806Z,10.93
2023-01-01T13:04:43.279Z,8.78
2023-01-01T13:08:02.968Z,8.63
2023-01-01T13:11:13.229Z,7.82
2023-01-01T13:14:23.217Z,8.09
2023-01-01T13:17:33.438Z,8.14
2023-01-01T13:20:45.643Z,8.27
2023-01-01T13:23:56.265Z,7.46
2023-01-01T13:27:07.366Z,7.18
2023-01-01T13:30:55.127Z,8.34
2023-01-01T13:35:02.985Z,8.07
2023-01-01T13:38:53.696Z,10.42
2023-01-01T13:42:00.891Z,12.05
2023-01-01T13:45:36.523Z,12.87
2023-01-01T13:49:29.297Z,11.69
2023-01-01T13:53:11.417Z,9.06
2023-01-01T13:56:40.964Z,8.58
2023-01-01T14:00:25.822Z,8.23
2023-01-01T14:03:45.807Z,7.91
2023-01-01T14:07:18.627Z,8.17
2023-01-01T14:10:33.996Z,8.03
2023-01-01T14:13:44.618Z,8.61
2023-01-01T14:16:51.986Z,9.13
2023-01-01T14:20:01.014Z,9.78
2023-01-01T14:23:14.833Z,9.07
2023-01-01T14:26:25.059Z,9.57
2023-01-01T14:29:35.991Z,10.36
2023-01-01T14:32:42.303Z,12.27
2023-01-01T14:36:00.435Z,11.52
2023-01-01T14:39:07.293Z,11.01
2023-01-01T14:42:20.838Z,12.79
2023-01-01T14:45:28.541Z,13.67
2023-01-01T14:48:37.710Z,15.14
2023-01-01T14:51:56.745Z,15.87
2023-01-01T14:55:06.964Z,19.03
2023-01-01T14:58:21.508Z,18.15
2023-01-01T15:01:30.474Z,16.71
2023-01-01T15:04:37.267Z,17.19
2023-01-01T15:07:46.880Z,17.02
2023-01-01T15:10:54.105Z,15.24
2023-01-01T15:14:05.011Z,16.34
2023-01-01T15:17:14.915Z,17.58
2023-01-01T15:20:26.274Z,15.61
2023-01-01T15:23:36.652Z,16.86
2023-01-01T15:26:52.158Z,21.21
2023-01-01T15:30:00.745Z,16.89
2023-01-01T15:33:19.652Z,15.05
2023-01-01T15:36:28.485Z,13.94
2023-01-01T15:39:50.729Z,14.34
2023-01-01T15:43:21.520Z,14.06
2023-01-01T15:46:32.792Z,15.60
2023-01-01T15:49:39.515Z,14.95
2023-01-01T15:52:55.420Z,14.57
2023-01-01T15:56:13.220Z,15.06
2023-01-01T15:59:33.575Z,15.41
2023-01-01T16:02:40.364Z,17.60
2023-01-01T16:05:55.529Z,17.33
2023-01-01T16:09:04.608Z,19.22
2023-01-01T16:12:14.758Z,18.60
2023-01-01T16:15:21.545Z,20.88
2023-01-01T16:18:34.722Z,25.17
2023-01-01T16:21:41.166Z,27.27
2023-01-01T16:24:48.851Z,30.81
2023-01-01T16:27:57.797Z,30.56
2023-01-01T16:31:05.467Z,30.59
2023-01-01T16:34:16.140Z,29.00
2023-01-01T16:37:23.626Z,29.74
2023-01-01T16:40:34.063Z,29.21
2023-01-01T16:43:48.603Z,27.77
2023-01-01T16:46:55.225Z,29.06
2023-01-01T16:50:02.641Z,34.60
2023-01-01T16:53:09.264Z,30.71
2023-01-01T16:56:18.167Z,30.26
2023-01-01T16:59:27.831Z,31.57
2023-01-01T17:02:35.293Z,33.76
2023-01-01T17:05:44.417Z,28.68
2023-01-01T17:08:52.317Z,26.80
2023-01-01T17:11:59.021Z,31.91
2023-01-01T17:15:10.927Z,36.82
2023-01-01T17:18:20.818Z,30.70
2023-01-01T17:21:35.635Z,34.06
2023-01-01T17:24:42.298Z,33.61
2023-01-01T17:27:51.144Z,33.59
2023-01-01T17:31:07.348Z,34.60
2023-01-01T17:34:15.503Z,33.56
2023-01-01T17:37:23.106Z,35.54
2023-01-01T17:40:36.587Z,35.18
2023-01-01T17:43:46.585Z,36.25
2023-01-01T17:46:56.728Z,31.52
2023-01-01T17:50:03.523Z,28.72
2023-01-01T17:53:14.213Z,28.66
2023-01-01T17:56:23.772Z,27.76
2023-01-01T17:59:32.653Z,29.45
2023-01-01T18:02:42.013Z,34.27
2023-01-01T18:05:49.539Z,34.49
2023-01-01T18:09:00.194Z,38.03
2023-01-01T18:12:09.130Z,38.01
2023-01-01T18:15:16.832Z,39.60
2023-01-01T18:18:26.602Z,39.22
2023-01-01T18:21:33.529Z,41.12
2023-01-01T18:24:40.837Z,38.56
2023-01-01T18:27:51.222Z,40.49
2023-01-01T18:31:08.901Z,34.70
2023-01-01T18:34:18.503Z,32.04
2023-01-01T18:37:26.064Z,31.35
2023-01-01T18:40:38.051Z,28.89
2023-01-01T18:43:45.446Z,28.05
2023-01-01T18:47:01.304Z,28.23
2023-01-01T18:50:24.109Z,27.91
2023-01-01T18:53:32.384Z,27.81
2023-01-01T18:56:39.443Z,28.21
2023-01-01T18:59:45.872Z,31.02
2023-01-01T19:03:00.537Z,32.10
2023-01-01T19:06:28.057Z,30.39
2023-01-01T19:09:35.202Z,30.23
2023-01-01T19:12:41.567Z,27.88
2023-01-01T19:15:52.021Z,25.43
2023-01-01T19:19:14.069Z,26.04
2023-01-01T19:22:36.766Z,26.16
2023-01-01T19:25:44.276Z,27.64
2023-01-01T19:28:56.599Z,30.26
2023-01-01T19:32:03.057Z,26.72
2023-01-01T19:35:16.331Z,24.64
2023-01-01T19:38:26.269Z,24.24
2023-01-01T19:41:33.666Z,23.62
2023-01-01T19:44:42.321Z,24.09
2023-01-01T19:47:49.590Z,23.47
2023-01-01T19:50:56.156Z,23.59
2023-01-01T19:54:07.361Z,23.94
2023-01-01T19:57:14.334Z,22.74
2023-01-01T20:00:23.055Z,22.17
2023-01-01T20:06:57.164Z,21.39
2023-01-01T20:10:06.819Z,22.72
2023-01-01T20:13:14.491Z,22.75
2023-01-01T20:16:21.540Z,22.10
2023-01-01T20:19:29.244Z,21.33
2023-01-01T20:22:36.917Z,21.13
2023-01-01T20:25:47.906Z,20.77
2023-01-01T20:29:07.029Z,19.33
2023-01-01T20:32:16.076Z,22.75
2023-01-01T20:35:43.105Z,22.50
2023-01-01T20:38:47.791Z,20.57
2023-01-01T20:41:57.103Z,19.35
2023-01-01T20:45:04.207Z,19.40
2023-01-01T20:48:17.825Z,20.07
2023-01-01T20:51:27.250Z,20.27
2023-01-01T20:54:33.896Z,20.37
2023-01-01T20:57:43.923Z,20.36
2023-01-01T21:00:50.746Z,19.49
2023-01-01T21:03:57.989Z,18.99
2023-01-01T21:07:04.615Z,19.55
2023-01-01T21:10:12.639Z,19.12
2023-01-01T21:13:23.392Z,18.64
2023-01-01T21:16:36.203Z,17.25
2023-01-01T21:19:42.433Z,18.09
2023-01-01T21:22:50.080Z,18.19
2023-01-01T21:25:56.793Z,19.37
2023-01-01T21:29:17.028Z,19.40
2023-01-01T21:32:27.362Z,22.87
2023-01-01T21:35:38.364Z,22.64
2023-01-01T21:38:44.951Z,22.65
2023-01-01T21:41:52.068Z,23.47
2023-01-01T21:45:02.995Z,23.42
2023-01-01T21:48:21.612Z,22.49
2023-01-01T21:51:30.661Z,21.10
2023-01-01T21:54:41.441Z,21.67
2023-01-01T21:57:48.208Z,21.23
2023-01-01T22:00:57.929Z,22.22
2023-01-01T22:04:19.772Z,22.88
2023-01-01T22:07:57.424Z,23.50
2023-01-01T22:11:01.082Z,22.61
2023-01-01T22:14:17.494Z,22.49
2023-01-01T22:17:36.831Z,24.19
2023-01-01T22:20:48.750Z,25.74
2023-01-01T22:24:03.108Z,23.57
2023-01-01T22:27:31.130Z,25.23
2023-01-01T22:30:44.874Z,24.98
2023-01-01T22:34:00.492Z,25.16
2023-01-01T22:37:12.187Z,27.62
2023-01-01T22:40:31.017Z,22.78
2023-01-01T22:43:41.830Z,23.90
2023-01-01T22:46:49.013Z,23.25
2023-01-01T22:49:57.812Z,24.04
2023-01-01T22:53:04.816Z,24.90
2023-01-01T22:56:11.693Z,24.61
2023-01-01T22:59:18.706Z,22.99
2023-01-01T23:02:24.900Z,24.46
2023-01-01T23:05:34.809Z,21.97
2023-01-01T23:08:41.194Z,22.38
2023-01-01T23:11:48.677Z,20.61
2023-01-01T23:15:07.164Z,19.66
2023-01-01T23:18:15.491Z,19.78
2023-01-01T23:21:27.589Z,18.86
2023-01-01T23:24:36.631Z,17.92
2023-01-01T23:27:44.172Z,18.44
2023-01-01T23:30:52.599Z,18.13
2023-01-01T23:34:02.281Z,18.27
2023-01-01T23:37:12.978Z,19.42
2023-01-01T23:40:19.318Z,17.68
2023-01-01T23:43:26.279Z,16.75
2023-01-01T23:46:34.869Z,18.38
2023-01-01T23:49:45.296Z,17.67
2023-01-01T23:52:54.225Z,17.00
2023-01-01T23:56:01.441Z,17.00
2023-01-01T23:59:07.604Z,15.38
